Time;durP1;ratioP1;P1;durP2;ratioP2;P2;SDS_P1;SDS_P2;PMS_P1;PMS_P2;Temp;Humidity;BMP_temperature;BMP_pressure;BME280_temperature;BME280_humidity;BME280_pressure;Samples;Min_cycle;Max_cycle;Signal;HPM_P1;HPM_P2
2023/10/18 00:00:05;;;;;;;13.43;6.22;;;;;;;10.16;66.69;101552.25;5048690;27;99216;-80
2023/10/18 00:02:32;;;;;;;18.25;6.18;;;;;;;10.29;66.05;101553.78;5051282;27;96953;-74
2023/10/18 00:04:59;;;;;;;11.60;5.45;;;;;;;10.02;66.57;101547.25;5045799;27;96890;-75
2023/10/18 00:07:27;;;;;;;10.75;6.25;;;;;;;10.15;66.61;101548.75;5048522;27;102092;-74
2023/10/18 00:09:55;;;;;;;11.65;5.60;;;;;;;9.97;66.76;101547.34;5047013;27;99086;-75
2023/10/18 00:12:21;;;;;;;12.45;5.43;;;;;;;10.01;67.27;101545.50;5050105;27;96878;-74
2023/10/18 00:14:52;;;;;;;12.25;6.05;;;;;;;10.02;68.06;101541.97;5050431;27;98822;-75
2023/10/18 00:17:18;;;;;;;13.20;6.07;;;;;;;10.00;68.53;101539.34;5046349;27;101679;-75
2023/10/18 00:19:46;;;;;;;12.27;6.78;;;;;;;9.88;68.81;101539.63;5044718;27;98912;-75
2023/10/18 00:22:12;;;;;;;12.13;5.90;;;;;;;9.90;69.24;101537.81;5042607;27;97225;-75
2023/10/18 00:24:39;;;;;;;10.55;5.95;;;;;;;9.78;69.51;101542.47;5051356;27;96755;-75
2023/10/18 00:27:06;;;;;;;10.27;5.70;;;;;;;10.04;69.16;101541.94;5042989;27;99277;-75
2023/10/18 00:29:32;;;;;;;11.55;5.95;;;;;;;9.88;69.36;101544.91;5049911;27;99644;-75
2023/10/18 00:31:59;;;;;;;13.35;6.25;;;;;;;10.04;68.92;101541.94;5048254;27;97153;-75
2023/10/18 00:34:26;;;;;;;9.45;5.50;;;;;;;9.82;69.65;101542.38;5051007;27;96988;-76
2023/10/18 00:36:54;;;;;;;9.93;6.78;;;;;;;9.76;69.56;101539.00;5049546;27;99388;-76
2023/10/18 00:39:21;;;;;;;11.95;7.00;;;;;;;9.81;69.56;101545.03;5049391;27;98827;-75
2023/10/18 00:41:52;;;;;;;11.90;6.22;;;;;;;9.81;69.56;101543.28;5047897;27;96782;-75
2023/10/18 00:44:21;;;;;;;11.15;6.15;;;;;;;9.72;70.13;101543.44;5043629;27;96634;-77
2023/10/18 00:46:47;;;;;;;11.82;7.35;;;;;;;9.65;69.49;101531.25;5043372;27;101638;-78
2023/10/18 00:49:14;;;;;;;10.00;5.85;;;;;;;9.66;69.27;101533.00;5048717;27;99036;-77
2023/10/18 00:51:43;;;;;;;11.45;6.22;;;;;;;9.75;68.57;101519.63;5049143;27;97257;-77
2023/10/18 00:54:12;;;;;;;14.43;6.35;;;;;;;9.75;68.68;101517.00;5042119;27;96826;-78
2023/10/18 00:56:40;;;;;;;12.63;5.68;;;;;;;9.64;69.04;101533.94;5052404;27;100725;-77
2023/10/18 00:59:18;;;;;;;11.93;6.70;;;;;;;9.48;69.28;101528.09;5051206;27;100033;-77
2023/10/18 01:01:46;;;;;;;11.77;6.25;;;;;;;9.78;68.27;101521.38;5048732;27;97692;-77
2023/10/18 01:04:13;;;;;;;10.82;5.70;;;;;;;9.95;67.48;101525.41;5041795;27;96852;-74
2023/10/18 01:06:43;;;;;;;11.75;6.05;;;;;;;10.04;67.48;101524.34;5048852;27;99442;-75
2023/10/18 01:09:15;;;;;;;11.70;6.45;;;;;;;10.13;66.70;101526.78;5050252;27;101714;-75
2023/10/18 01:11:41;;;;;;;14.27;6.60;;;;;;;9.87;67.03;101523.78;5047625;27;96808;-76
2023/10/18 01:14:13;;;;;;;14.98;6.72;;;;;;;10.05;66.58;101519.91;5051027;27;97000;-75
2023/10/18 01:16:39;;;;;;;11.82;6.18;;;;;;;9.93;66.99;101527.19;5050393;27;97918;-75
2023/10/18 01:19:08;;;;;;;13.90;6.55;;;;;;;9.98;67.31;101521.78;5049868;27;97656;-75
2023/10/18 01:21:35;;;;;;;11.50;5.50;;;;;;;9.68;68.25;101523.28;5049036;27;97306;-75
2023/10/18 01:24:01;;;;;;;8.80;5.82;;;;;;;9.74;68.07;101520.53;5048810;27;96738;-75
2023/10/18 01:26:31;;;;;;;10.48;5.93;;;;;;;9.63;68.04;101522.53;5050005;27;99541;-75
2023/10/18 01:29:03;;;;;;;15.00;6.82;;;;;;;9.96;67.54;101527.13;5050070;27;98874;-75
2023/10/18 01:31:29;;;;;;;12.85;5.68;;;;;;;9.87;67.89;101511.47;5048172;27;96788;-75
2023/10/18 01:33:56;;;;;;;10.05;5.53;;;;;;;9.95;67.17;101509.56;5048920;27;96931;-75
2023/10/18 01:36:30;;;;;;;12.93;5.70;;;;;;;9.75;67.70;101508.22;5045827;27;98971;-75
2023/10/18 01:38:57;;;;;;;12.63;5.65;;;;;;;9.75;67.71;101506.44;5049327;27;99466;-73
2023/10/18 01:41:26;;;;;;;9.57;5.50;;;;;;;9.78;67.43;101503.72;5049370;27;96770;-73
2023/10/18 01:43:55;;;;;;;10.93;5.40;;;;;;;9.75;67.56;101501.16;5046423;27;96727;-73
2023/10/18 01:46:23;;;;;;;12.02;5.50;;;;;;;9.92;67.14;101506.09;5048278;27;98978;-73
2023/10/18 01:48:50;;;;;;;8.95;5.72;;;;;;;9.95;66.61;101504.28;5046164;27;99144;-73
2023/10/18 01:51:17;;;;;;;11.23;5.57;;;;;;;10.00;66.65;101499.75;5049188;27;96884;-73
2023/10/18 01:53:44;;;;;;;10.95;5.55;;;;;;;9.96;66.46;101489.31;5049374;27;96996;-73
2023/10/18 01:56:10;;;;;;;11.48;5.57;;;;;;;9.94;66.45;101484.03;5054001;27;98981;-73
2023/10/18 01:58:38;;;;;;;13.60;6.03;;;;;;;9.73;66.85;101481.84;5052338;27;98125;-73
2023/10/18 02:01:09;;;;;;;8.73;5.40;;;;;;;9.99;66.54;101489.22;5051620;27;96863;-73
2023/10/18 02:03:36;;;;;;;11.32;5.28;;;;;;;9.91;66.57;101481.44;5052233;27;96946;-73
2023/10/18 02:06:06;;;;;;;10.55;5.72;;;;;;;9.58;67.92;101482.16;5044504;27;98950;-73
2023/10/18 02:08:33;;;;;;;11.82;5.90;;;;;;;9.65;68.25;101489.03;5050909;27;99994;-73
2023/10/18 02:10:59;;;;;;;9.50;5.80;;;;;;;9.59;68.03;101476.84;5052717;27;96813;-73
2023/10/18 02:13:26;;;;;;;10.35;5.63;;;;;;;9.65;68.32;101477.66;5052563;27;96889;-73
2023/10/18 02:15:52;;;;;;;12.93;6.40;;;;;;;9.60;67.99;101473.31;5052400;27;98967;-73
2023/10/18 02:18:20;;;;;;;12.38;5.53;;;;;;;9.62;68.08;101467.13;5045652;27;97531;-75
2023/10/18 02:20:51;;;;;;;12.82;5.72;;;;;;;9.73;67.99;101470.41;5052810;27;96735;-74
2023/10/18 02:23:18;;;;;;;14.73;5.75;;;;;;;9.56;68.29;101463.72;5052496;27;96783;-75
2023/10/18 02:25:45;;;;;;;11.95;6.30;;;;;;;9.71;67.62;101461.69;5052057;27;99341;-75
2023/10/18 02:28:23;;;;;;;8.82;5.20;;;;;;;9.64;67.98;101467.97;5046007;27;99370;-74
2023/10/18 02:30:55;;;;;;;9.85;5.68;;;;;;;9.51;68.88;101464.72;5047360;27;96903;-75
2023/10/18 02:33:24;;;;;;;11.13;5.05;;;;;;;9.36;69.68;101465.00;5047551;27;96739;-75
2023/10/18 02:35:51;;;;;;;7.70;5.50;;;;;;;9.31;70.56;101465.09;5052197;27;98903;-75
2023/10/18 02:38:18;;;;;;;11.07;5.95;;;;;;;9.34;70.37;101469.44;5051789;27;101665;-74
2023/10/18 02:40:45;;;;;;;9.40;5.25;;;;;;;9.24;70.17;101467.88;5052304;27;97552;-75
2023/10/18 02:43:14;;;;;;;10.60;6.40;;;;;;;9.33;70.34;101467.69;5052787;27;96972;-75
2023/10/18 02:45:42;;;;;;;8.20;5.30;;;;;;;9.23;70.66;101467.00;5047483;27;102186;-74
2023/10/18 02:48:13;;;;;;;7.40;5.43;;;;;;;9.24;70.75;101470.53;5045972;27;101652;-74
2023/10/18 02:50:41;;;;;;;10.55;6.05;;;;;;;9.11;70.65;101470.75;5051240;27;96690;-76
2023/10/18 02:53:08;;;;;;;9.35;5.47;;;;;;;9.34;69.86;101472.94;5048674;27;96808;-76
2023/10/18 02:55:38;;;;;;;11.25;5.75;;;;;;;9.35;69.23;101466.78;5048536;27;98888;-74
2023/10/18 02:58:06;;;;;;;7.43;5.10;;;;;;;9.21;69.80;101466.16;5051367;27;98835;-75
2023/10/18 03:00:37;;;;;;;10.90;5.85;;;;;;;9.29;69.25;101466.88;5046217;27;97020;-74
2023/10/18 03:03:04;;;;;;;8.88;5.63;;;;;;;9.38;68.95;101466.72;5050485;27;96824;-74
2023/10/18 03:05:33;;;;;;;13.23;5.90;;;;;;;9.22;69.64;101461.75;5052478;27;98954;-75
2023/10/18 03:08:00;;;;;;;9.68;6.15;;;;;;;9.34;69.13;101462.38;5045149;27;99020;-76
2023/10/18 03:10:28;;;;;;;10.85;5.60;;;;;;;9.37;68.93;101466.75;5051461;27;96808;-75
2023/10/18 03:12:55;;;;;;;8.15;5.65;;;;;;;9.32;69.02;101464.19;5051073;27;97051;-75
2023/10/18 03:15:25;;;;;;;9.23;5.68;;;;;;;8.97;70.29;101459.56;5052799;27;99198;-75
2023/10/18 03:17:52;;;;;;;12.02;5.40;;;;;;;9.66;68.29;101453.84;5049928;27;98850;-76
2023/10/18 03:20:22;;;;;;;14.63;5.50;;;;;;;9.66;67.90;101453.84;5051004;27;96708;-75
2023/10/18 03:22:49;;;;;;;11.45;5.97;;;;;;;9.58;67.71;101445.22;5049148;27;101957;-75
2023/10/18 03:25:26;;;;;;;8.85;5.57;;;;;;;9.43;67.47;101446.41;5046794;27;99209;-76
2023/10/18 03:27:57;;;;;;;8.27;5.88;;;;;;;9.58;67.45;101450.50;5051019;27;99761;-76
2023/10/18 03:30:40;;;;;;;10.80;5.82;;;;;;;9.33;67.84;101438.69;5052583;27;96717;-76
2023/10/18 03:33:07;;;;;;;11.68;5.90;;;;;;;9.37;67.75;101440.38;5045752;27;97844;-74
2023/10/18 03:35:38;;;;;;;12.45;6.38;;;;;;;9.51;67.16;101433.06;5042709;27;99181;-74
2023/10/18 03:38:15;;;;;;;8.20;5.78;;;;;;;9.64;67.12;101429.28;5044363;27;98866;-75
2023/10/18 03:40:47;;;;;;;8.32;5.57;;;;;;;9.38;67.55;101436.84;5051608;27;96687;-79
2023/10/18 03:43:15;;;;;;;15.43;6.40;;;;;;;9.39;67.78;101443.84;5052339;27;97040;-80
2023/10/18 03:48:24;;;;;;;12.07;6.32;;;;;;;9.16;69.27;101446.91;5037398;27;98617;-77
2023/10/18 03:50:51;;;;;;;13.93;6.70;;;;;;;8.93;69.75;101443.81;5048217;27;96776;-77
2023/10/18 03:53:19;;;;;;;15.30;7.20;;;;;;;8.88;69.79;101443.03;5046529;27;96842;-78
2023/10/18 03:55:49;;;;;;;15.45;7.00;;;;;;;8.82;69.84;101435.22;5049623;27;97464;-78
2023/10/18 03:58:22;;;;;;;12.95;6.97;;;;;;;9.02;69.61;101425.22;5049711;27;99249;-78
2023/10/18 04:00:49;;;;;;;9.88;6.70;;;;;;;8.93;69.95;101425.38;5048259;27;96775;-76
2023/10/18 04:03:20;;;;;;;13.18;6.35;;;;;;;9.05;69.37;101431.31;5052045;27;97086;-78
2023/10/18 04:05:49;;;;;;;9.32;5.65;;;;;;;9.21;68.98;101429.25;5050604;27;98818;-77
2023/10/18 04:08:17;;;;;;;11.48;6.30;;;;;;;9.12;69.34;101418.88;5049225;27;98756;-77
2023/10/18 04:10:44;;;;;;;10.23;6.03;;;;;;;9.07;69.30;101413.69;5049032;27;97141;-77
2023/10/18 04:13:12;;;;;;;11.05;6.63;;;;;;;9.05;69.37;101412.88;5049767;27;96830;-77
2023/10/18 04:15:39;;;;;;;10.68;6.38;;;;;;;8.84;70.03;101415.00;5050734;27;99212;-77
2023/10/18 04:18:13;;;;;;;9.77;6.32;;;;;;;8.92;69.52;101415.75;5048537;27;101522;-77
2023/10/18 04:20:43;;;;;;;14.52;6.60;;;;;;;8.69;70.41;101408.22;5048310;27;96996;-78
2023/10/18 04:23:18;;;;;;;16.13;6.72;;;;;;;8.69;69.71;101409.09;5043651;27;96791;-79
2023/10/18 04:25:52;;;;;;;12.55;6.93;;;;;;;8.82;69.17;101408.88;5047032;27;98767;-79
2023/10/18 04:28:22;;;;;;;12.00;7.18;;;;;;;8.98;69.22;101410.38;5050354;27;97910;-80
2023/10/18 04:30:52;;;;;;;13.05;6.90;;;;;;;9.09;68.46;101406.63;5041595;27;96977;-80
2023/10/18 04:33:24;;;;;;;16.30;6.53;;;;;;;9.16;67.80;101400.34;5051462;27;96727;-80
2023/10/18 04:35:52;;;;;;;14.25;6.88;;;;;;;8.98;68.40;101399.81;5045657;27;98974;-80
2023/10/18 04:38:22;;;;;;;15.90;8.00;;;;;;;9.02;68.30;101397.09;5043858;27;98815;-80
2023/10/18 04:40:55;;;;;;;11.35;6.72;;;;;;;8.88;68.85;101396.47;5045538;27;96824;-80
2023/10/18 04:43:27;;;;;;;15.07;7.13;;;;;;;8.82;69.66;101393.94;5049258;27;96784;-80
2023/10/18 04:45:57;;;;;;;12.02;6.57;;;;;;;8.96;69.19;101397.19;5047398;27;98897;-80
2023/10/18 04:48:59;;;;;;;14.60;8.02;;;;;;;8.80;69.81;101390.44;5049859;27;98819;-81
2023/10/18 04:51:26;;;;;;;12.52;7.20;;;;;;;8.69;69.96;101392.41;5043968;27;100409;-80
2023/10/18 04:53:53;;;;;;;11.75;6.88;;;;;;;8.62;70.52;101393.41;5047992;27;96870;-80
2023/10/18 04:56:29;;;;;;;13.02;7.20;;;;;;;8.86;69.29;101395.63;5041904;27;99355;-79
2023/10/18 04:58:59;;;;;;;8.73;6.30;;;;;;;8.72;70.10;101397.66;5048677;27;98933;-81
2023/10/18 05:01:32;;;;;;;16.30;7.35;;;;;;;8.65;70.44;101399.53;5047775;27;97645;-80
2023/10/18 05:04:00;;;;;;;15.30;6.75;;;;;;;8.54;71.07;101397.94;5049967;27;96764;-80
2023/10/18 05:06:29;;;;;;;14.13;7.25;;;;;;;8.71;70.36;101398.53;5042860;27;99561;-81
2023/10/18 05:08:56;;;;;;;16.05;7.45;;;;;;;8.47;71.14;101404.25;5049731;27;99062;-78
2023/10/18 05:11:26;;;;;;;17.25;7.32;;;;;;;8.71;70.51;101396.78;5049699;27;97442;-79
2023/10/18 05:13:56;;;;;;;14.60;7.10;;;;;;;8.88;69.73;101393.81;5047556;27;98573;-75
2023/10/18 05:16:26;;;;;;;13.00;8.07;;;;;;;8.88;69.21;101390.31;5041203;27;102394;-75
2023/10/18 05:18:53;;;;;;;17.27;8.38;;;;;;;8.73;69.84;101391.47;5049066;27;100478;-75
2023/10/18 05:21:21;;;;;;;16.13;8.45;;;;;;;8.45;70.40;101395.47;5049378;27;96897;-75
2023/10/18 05:23:50;;;;;;;11.52;7.40;;;;;;;8.76;69.43;101389.66;5050285;27;96985;-76
2023/10/18 05:26:18;;;;;;;15.05;7.35;;;;;;;8.74;70.17;101391.44;5048924;27;99023;-76
2023/10/18 05:28:48;;;;;;;13.30;7.40;;;;;;;8.90;68.92;101389.41;5048075;27;98940;-77
2023/10/18 05:31:44;;;;;;;13.05;6.85;;;;;;;8.72;69.91;101393.25;5045303;27;97903;-76
2023/10/18 05:34:22;;;;;;;12.05;6.82;;;;;;;8.54;70.68;101398.81;5045230;27;98472;-75
2023/10/18 05:37:12;;;;;;;11.90;6.97;;;;;;;8.67;70.75;101402.97;5046395;27;99021;-75
2023/10/18 05:39:49;;;;;;;13.05;7.20;;;;;;;8.70;70.42;101409.97;5047586;27;101146;-75
2023/10/18 05:42:20;;;;;;;;;;;;;;;8.64;70.25;101404.81;5039581;27;99542;-76
2023/10/18 05:44:47;;;;;;;15.73;7.75;;;;;;;8.70;70.17;101400.31;5049520;27;96819;-75
2023/10/18 05:47:13;;;;;;;14.75;7.47;;;;;;;8.60;70.15;101411.03;5037167;27;97849;-75
2023/10/18 05:49:42;;;;;;;15.90;7.50;;;;;;;8.66;69.89;101406.50;5045228;27;98955;-75
2023/10/18 05:52:19;;;;;;;10.68;7.22;;;;;;;8.72;69.88;101414.34;5038720;27;97285;-74
2023/10/18 05:54:46;;;;;;;13.88;8.10;;;;;;;8.77;69.49;101408.97;5045137;27;96810;-76
2023/10/18 05:57:16;;;;;;;17.55;7.82;;;;;;;8.70;69.65;101415.25;5038893;27;101496;-75
2023/10/18 05:59:46;;;;;;;13.15;8.00;;;;;;;8.72;70.28;101402.91;5041185;27;99570;-75
2023/10/18 06:02:22;;;;;;;12.85;7.07;;;;;;;8.77;70.23;101399.31;5046551;27;98507;-76
2023/10/18 06:04:51;;;;;;;14.98;7.50;;;;;;;8.71;70.46;101394.16;5044359;27;97676;-75
2023/10/18 06:07:22;;;;;;;17.30;7.97;;;;;;;8.61;71.27;101389.03;5040127;27;99383;-74
2023/10/18 06:09:54;;;;;;;15.23;7.93;;;;;;;8.83;70.43;101387.78;5041970;27;99001;-75
2023/10/18 06:12:23;;;;;;;17.98;7.40;;;;;;;9.00;69.18;101383.06;5045825;27;96842;-75
2023/10/18 06:14:52;;;;;;;15.43;8.00;;;;;;;8.95;69.17;101394.59;5038945;27;97036;-75
2023/10/18 06:17:22;;;;;;;14.80;7.53;;;;;;;9.06;69.12;101388.22;5050454;27;99195;-76
2023/10/18 06:19:51;;;;;;;16.15;8.60;;;;;;;9.09;69.89;101385.53;5052834;27;99270;-75
2023/10/18 06:22:27;;;;;;;11.80;7.75;;;;;;;9.24;69.41;101396.69;5049912;27;96765;-76
2023/10/18 06:24:55;;;;;;;17.88;8.30;;;;;;;8.97;70.07;101393.66;5051465;27;96819;-75
2023/10/18 06:27:22;;;;;;;14.32;7.25;;;;;;;9.33;69.89;101385.94;5052585;27;99061;-75
2023/10/18 06:29:53;;;;;;;10.82;7.32;;;;;;;9.34;69.89;101387.66;5049281;27;98931;-75
2023/10/18 06:32:22;;;;;;;14.50;7.93;;;;;;;9.27;70.21;101380.78;5047804;27;97962;-74
2023/10/18 06:34:55;;;;;;;16.77;7.88;;;;;;;9.68;69.50;101375.50;5044810;27;97933;-74
2023/10/18 06:37:23;;;;;;;15.13;8.50;;;;;;;10.09;68.33;101373.72;5037822;27;100461;-76
2023/10/18 06:39:54;;;;;;;15.48;8.27;;;;;;;10.00;67.78;101362.47;5050547;27;99169;-75
2023/10/18 06:42:26;;;;;;;17.50;8.00;;;;;;;10.18;67.53;101373.50;5041644;27;98899;-74
2023/10/18 06:44:54;;;;;;;18.15;9.23;;;;;;;10.38;66.83;101372.13;5046331;27;97521;-74
2023/10/18 06:47:30;;;;;;;17.77;8.38;;;;;;;10.58;66.59;101378.69;5046300;27;99287;-74
2023/10/18 06:50:03;;;;;;;14.27;8.63;;;;;;;10.51;66.65;101377.97;5047726;27;99955;-75
2023/10/18 06:52:40;;;;;;;15.27;8.43;;;;;;;10.63;66.71;101376.81;5047332;27;96776;-74
2023/10/18 06:55:07;;;;;;;;;;;;;;;10.89;66.78;101369.06;5048104;27;98970;-76
2023/10/18 06:57:36;;;;;;;22.27;8.75;;;;;;;10.78;67.14;101377.25;5049481;27;102291;-75
2023/10/18 07:00:11;;;;;;;17.08;8.63;;;;;;;10.76;67.47;101372.94;5050317;27;101787;-75
2023/10/18 07:02:38;;;;;;;14.95;8.55;;;;;;;10.72;68.19;101372.16;5045831;27;98501;-74
2023/10/18 07:05:08;;;;;;;15.52;8.88;;;;;;;10.86;67.55;101368.28;5046049;27;97361;-75
2023/10/18 07:07:37;;;;;;;17.48;9.25;;;;;;;11.15;66.42;101371.88;5044031;27;101743;-75
2023/10/18 07:10:05;;;;;;;17.88;8.50;;;;;;;10.87;66.87;101376.16;5048750;27;101820;-75
2023/10/18 07:12:44;;;;;;;15.80;9.48;;;;;;;11.63;65.14;101375.75;5048047;27;97302;-75
2023/10/18 07:15:16;;;;;;;17.25;8.65;;;;;;;11.50;65.42;101373.47;5047402;27;97402;-75
2023/10/18 07:17:42;;;;;;;16.10;8.88;;;;;;;11.57;64.46;101374.16;5044355;27;99074;-75
2023/10/18 07:20:15;;;;;;;17.30;8.93;;;;;;;11.64;64.86;101374.84;5040803;27;100908;-76
2023/10/18 07:22:44;;;;;;;19.13;10.77;;;;;;;11.83;64.47;101368.13;5046293;27;96811;-75
2023/10/18 07:25:19;;;;;;;12.73;8.23;;;;;;;11.68;65.21;101364.16;5047840;27;98515;-76
2023/10/18 07:27:45;;;;;;;21.38;9.45;;;;;;;11.88;64.78;101368.88;5048174;27;99020;-75
2023/10/18 07:30:15;;;;;;;22.33;9.18;;;;;;;12.19;63.40;101366.97;5047904;27;98911;-75
2023/10/18 07:32:42;;;;;;;17.02;9.45;;;;;;;11.87;64.02;101367.13;5047530;27;96747;-75
2023/10/18 07:35:12;;;;;;;17.92;9.18;;;;;;;12.28;63.43;101364.00;5044837;27;101392;-73
2023/10/18 07:37:43;;;;;;;18.95;9.32;;;;;;;12.20;64.13;101357.25;5049270;27;99312;-74
2023/10/18 07:40:11;;;;;;;16.85;8.60;;;;;;;12.28;63.68;101353.41;5042464;27;102015;-74
2023/10/18 07:42:43;;;;;;;15.55;8.77;;;;;;;12.67;62.50;101351.19;5050914;27;99048;-74
2023/10/18 07:45:14;;;;;;;17.83;8.80;;;;;;;12.58;62.66;101351.53;5045740;27;97636;-75
2023/10/18 07:47:41;;;;;;;13.73;8.82;;;;;;;12.66;61.71;101352.16;5048455;27;99326;-75
2023/10/18 07:50:34;;;;;;;18.00;9.52;;;;;;;12.62;61.43;101347.84;5048718;27;99034;-74
2023/10/18 07:53:02;;;;;;;24.58;9.23;;;;;;;12.51;61.61;101355.31;5046599;27;97082;-73
2023/10/18 07:55:36;;;;;;;17.60;9.10;;;;;;;12.66;61.41;101351.28;5044722;27;97245;-74
2023/10/18 07:58:06;;;;;;;14.07;8.68;;;;;;;13.07;60.12;101342.69;5044514;27;100149;-74
2023/10/18 08:00:32;;;;;;;20.17;9.13;;;;;;;13.15;59.46;101340.69;5047197;27;99171;-74
2023/10/18 08:02:59;;;;;;;18.90;9.60;;;;;;;13.03;59.68;101333.13;5039365;27;96899;-74
2023/10/18 08:05:30;;;;;;;20.13;9.40;;;;;;;13.25;58.95;101333.25;5043190;27;99905;-73
2023/10/18 08:07:57;;;;;;;16.38;9.60;;;;;;;13.18;58.70;101328.22;5039786;27;98865;-73
2023/10/18 08:10:25;;;;;;;16.48;9.27;;;;;;;13.29;58.52;101328.69;5042613;27;99171;-73
2023/10/18 08:13:03;;;;;;;17.13;8.73;;;;;;;13.53;57.76;101322.44;5041562;27;98646;-74
2023/10/18 08:15:34;;;;;;;15.85;9.38;;;;;;;13.40;58.20;101327.34;5044123;27;97366;-74
2023/10/18 08:18:03;;;;;;;16.58;9.45;;;;;;;13.67;57.47;101320.13;5046585;27;99390;-74
2023/10/18 08:20:55;;;;;;;18.17;10.27;;;;;;;13.61;58.04;101320.34;5044776;27;100294;-74
2023/10/18 08:23:34;;;;;;;16.52;9.98;;;;;;;13.54;57.80;101324.16;5046749;27;96814;-74
2023/10/18 08:26:04;;;;;;;20.85;9.35;;;;;;;13.95;56.27;101326.06;5039001;27;97619;-74
2023/10/18 08:28:38;;;;;;;16.75;9.88;;;;;;;14.32;56.02;101319.22;5044373;27;98757;-75
2023/10/18 08:31:11;;;;;;;22.63;9.90;;;;;;;14.66;55.38;101316.03;5042087;27;98886;-75
2023/10/18 08:33:37;;;;;;;17.67;10.70;;;;;;;14.84;54.79;101322.34;5046825;27;97340;-74
2023/10/18 08:36:09;;;;;;;20.90;9.75;;;;;;;14.79;54.47;101311.91;5041431;27;97528;-74
2023/10/18 08:38:36;;;;;;;15.38;10.00;;;;;;;14.97;53.44;101313.75;5043184;27;97838;-73
2023/10/18 08:41:15;;;;;;;15.10;10.13;;;;;;;14.67;54.46;101308.00;5044839;27;101911;-74
2023/10/18 08:43:57;;;;;;;18.05;10.40;;;;;;;14.71;53.94;101306.06;5047449;27;97077;-73
2023/10/18 08:46:26;;;;;;;13.90;9.35;;;;;;;14.77;54.08;101314.63;5043490;27;97248;-75
2023/10/18 08:48:55;;;;;;;14.77;9.77;;;;;;;14.85;53.53;101318.75;5044431;27;98910;-75
2023/10/18 08:51:28;;;;;;;15.07;9.85;;;;;;;14.86;54.00;101320.50;5046469;27;100725;-73
2023/10/18 08:53:56;;;;;;;20.52;10.63;;;;;;;14.67;54.61;101308.00;5043545;27;97565;-74
2023/10/18 08:56:32;;;;;;;15.10;10.13;;;;;;;14.65;54.81;101309.84;5042491;27;98343;-75
2023/10/18 08:58:59;;;;;;;14.98;9.85;;;;;;;14.85;54.20;101310.78;5043762;27;100608;-75
2023/10/18 09:01:26;;;;;;;15.32;9.38;;;;;;;14.95;53.79;101309.44;5043906;27;103876;-74
2023/10/18 09:03:52;;;;;;;17.92;9.75;;;;;;;15.36;52.40;101302.25;5045025;27;97442;-74
2023/10/18 09:06:30;;;;;;;;;;;;;;;15.50;51.63;101303.31;5050324;27;97341;-76
2023/10/18 09:09:04;;;;;;;17.00;9.50;;;;;;;15.90;50.79;101301.44;5050286;27;99512;-74
2023/10/18 09:11:33;;;;;;;16.15;8.63;;;;;;;15.98;50.13;101293.94;5049282;27;98143;-74
2023/10/18 09:14:07;;;;;;;14.30;9.20;;;;;;;15.82;49.82;101292.94;5046380;27;96863;-74
2023/10/18 09:16:35;;;;;;;13.73;8.32;;;;;;;15.78;49.25;101278.91;5047118;27;96790;-75
2023/10/18 09:19:01;;;;;;;13.88;9.00;;;;;;;15.96;48.96;101285.16;5046485;27;99161;-74
2023/10/18 09:21:36;;;;;;;14.30;8.73;;;;;;;16.00;48.81;101281.41;5049614;27;97502;-74
2023/10/18 09:24:04;;;;;;;12.02;7.90;;;;;;;16.24;48.29;101269.50;5040642;27;98324;-74
2023/10/18 09:26:35;;;;;;;13.13;7.22;;;;;;;15.97;47.79;101272.69;5046094;27;97346;-74
2023/10/18 09:29:02;;;;;;;9.85;6.80;;;;;;;16.17;47.35;101281.41;5041790;27;99349;-72
2023/10/18 09:31:29;;;;;;;13.15;7.40;;;;;;;16.02;47.47;101273.31;5049515;27;99297;-73
2023/10/18 09:33:58;;;;;;;12.13;7.10;;;;;;;15.92;47.20;101270.25;5046985;27;96807;-72
2023/10/18 09:36:25;;;;;;;9.70;6.22;;;;;;;15.85;47.55;101272.34;5041928;27;98502;-72
2023/10/18 09:38:54;;;;;;;7.28;5.32;;;;;;;15.86;47.59;101265.22;5043857;27;97938;-72
2023/10/18 09:41:21;;;;;;;9.45;6.28;;;;;;;15.85;47.42;101271.50;5047108;27;98877;-72
2023/10/18 09:43:49;;;;;;;9.02;5.90;;;;;;;15.87;47.63;101269.63;5045155;27;96940;-77
2023/10/18 09:46:16;;;;;;;13.77;6.45;;;;;;;15.89;47.28;101265.06;5046341;27;97416;-77
2023/10/18 09:48:44;;;;;;;13.02;6.93;;;;;;;16.27;47.25;101260.50;5047441;27;99068;-77
2023/10/18 09:51:14;;;;;;;13.23;6.00;;;;;;;16.37;47.13;101263.53;5041300;27;100556;-78
2023/10/18 09:53:43;;;;;;;8.02;5.75;;;;;;;16.46;46.63;101261.28;5046569;27;97640;-78
2023/10/18 09:56:11;;;;;;;10.25;5.82;;;;;;;16.58;46.11;101257.97;5041701;27;97487;-78
2023/10/18 09:58:42;;;;;;;8.10;6.43;;;;;;;16.07;46.21;101258.84;5050444;27;99334;-78
2023/10/18 10:01:14;;;;;;;20.25;6.68;;;;;;;16.11;46.51;101257.75;5040231;27;99188;-77
2023/10/18 10:03:50;;;;;;;11.77;6.07;;;;;;;16.32;45.97;101258.47;5043187;27;96892;-78
2023/10/18 10:06:19;;;;;;;8.18;6.10;;;;;;;16.18;46.08;101250.28;5047978;27;96898;-77
2023/10/18 10:08:48;;;;;;;12.05;6.07;;;;;;;16.23;45.79;101254.44;5053605;27;99066;-78
2023/10/18 10:11:19;;;;;;;9.60;5.88;;;;;;;15.91;46.94;101248.06;5046954;27;99089;-80
2023/10/18 10:13:49;;;;;;;12.70;6.50;;;;;;;16.22;46.68;101252.72;5042517;27;97037;-78
2023/10/18 10:16:20;;;;;;;8.60;6.57;;;;;;;16.12;46.29;101248.81;5048564;27;97253;-79
2023/10/18 10:18:49;;;;;;;12.38;6.50;;;;;;;16.02;46.34;101244.00;5047580;27;98960;-79
2023/10/18 10:21:20;;;;;;;22.60;7.15;;;;;;;16.31;46.71;101238.94;5047693;27;100962;-78
2023/10/18 10:23:50;;;;;;;16.88;6.43;;;;;;;16.55;45.57;101231.44;5050686;27;97868;-80
2023/10/18 10:26:22;;;;;;;14.90;6.30;;;;;;;16.80;45.10;101232.88;5046390;27;97459;-78
2023/10/18 10:31:55;;;;;;;8.77;5.57;;;;;;;16.73;44.83;101235.00;5046217;27;96802;-78
2023/10/18 10:34:32;;;;;;;7.70;5.90;;;;;;;16.42;45.68;101240.16;5044705;27;96898;-79
2023/10/18 10:37:06;;;;;;;;;;;;;;;16.59;44.43;101238.38;5045416;27;96796;-79
2023/10/18 10:39:37;;;;;;;8.93;4.95;;;;;;;16.84;43.89;101231.75;5049406;27;98790;-78
2023/10/18 10:42:09;;;;;;;11.93;4.90;;;;;;;16.70;43.88;101227.13;5045893;27;100450;-79
2023/10/18 10:45:02;;;;;;;11.63;5.28;;;;;;;16.71;42.99;101221.72;5047477;27;97189;-79
2023/10/18 10:47:30;;;;;;;8.10;5.15;;;;;;;16.80;42.97;101216.84;5048551;27;97397;-79
2023/10/18 10:50:32;;;;;;;8.07;4.50;;;;;;;16.55;42.77;101206.56;5046380;27;99434;-79
2023/10/18 10:53:04;;;;;;;7.40;4.43;;;;;;;16.46;43.28;101202.59;5041669;27;99130;-78
2023/10/18 10:55:34;;;;;;;6.53;4.68;;;;;;;16.43;43.47;101199.22;5047680;27;97948;-79
2023/10/18 10:58:07;;;;;;;7.70;4.75;;;;;;;16.83;42.83;101204.19;5042254;27;97461;-79
2023/10/18 11:00:39;;;;;;;8.40;5.00;;;;;;;16.64;42.42;101201.66;5041602;27;100398;-78
2023/10/18 11:03:29;;;;;;;9.32;4.97;;;;;;;16.72;42.59;101193.25;5047499;27;98895;-79
2023/10/18 11:05:58;;;;;;;10.07;4.80;;;;;;;16.81;41.71;101184.72;5043171;27;96960;-78
2023/10/18 11:08:26;;;;;;;8.05;4.63;;;;;;;16.81;42.04;101179.38;5049181;27;96748;-79
2023/10/18 11:10:54;;;;;;;9.57;4.70;;;;;;;16.70;42.21;101187.13;5045515;27;98975;-79
2023/10/18 11:13:24;;;;;;;6.63;3.75;;;;;;;16.77;41.57;101177.84;5046904;27;98919;-79
2023/10/18 11:15:51;;;;;;;6.18;3.42;;;;;;;16.92;40.66;101181.47;5049855;27;97066;-78
2023/10/18 11:18:20;;;;;;;8.27;3.45;;;;;;;16.87;40.78;101173.69;5041939;27;97522;-73
2023/10/18 11:20:58;;;;;;;10.50;3.30;;;;;;;16.97;40.47;101169.59;5042408;27;102000;-73
2023/10/18 11:23:29;;;;;;;8.90;3.58;;;;;;;17.06;40.62;101166.44;5045084;27;98897;-78
2023/10/18 11:25:56;;;;;;;7.20;3.25;;;;;;;16.84;40.46;101160.53;5041740;27;98335;-78
2023/10/18 11:28:28;;;;;;;4.07;2.97;;;;;;;17.02;38.36;101154.19;5046530;27;96808;-78
2023/10/18 11:30:56;;;;;;;3.47;2.80;;;;;;;16.95;38.87;101155.47;5045706;27;101340;-79
2023/10/18 11:33:36;;;;;;;9.80;3.30;;;;;;;16.87;38.73;101154.19;5046587;27;97584;-79
2023/10/18 11:36:08;;;;;;;9.50;3.45;;;;;;;16.92;38.68;101149.44;5043278;27;97198;-79
2023/10/18 11:38:34;;;;;;;8.05;2.97;;;;;;;16.82;37.90;101151.75;5043668;27;99181;-78
2023/10/18 11:41:09;;;;;;;3.63;2.60;;;;;;;16.71;38.69;101151.50;5046356;27;101420;-78